Time;durP1;ratioP1;P1;durP2;ratioP2;P2;SDS_P1;SDS_P2;PMS_P1;PMS_P2;Temp;Humidity;BMP_temperature;BMP_pressure;BME280_temperature;BME280_humidity;BME280_pressure;Samples;Min_cycle;Max_cycle;Signal;HPM_P1;HPM_P2
2024/01/17 00:02:06;;;;;;;8.13;3.60;;;0.50;71.50;;;;;;5148236;27;20077;-70
2024/01/17 00:04:33;;;;;;;7.93;3.57;;;0.50;71.30;;;;;;5155360;27;20478;-70
2024/01/17 00:07:00;;;;;;;7.43;2.72;;;0.50;71.10;;;;;;5131798;27;20383;-70
2024/01/17 00:09:27;;;;;;;8.25;3.25;;;0.50;71.10;;;;;;5142876;27;20657;-70
2024/01/17 00:11:54;;;;;;;8.68;3.60;;;0.50;71.40;;;;;;5131897;27;20061;-70
2024/01/17 00:14:22;;;;;;;9.32;3.10;;;0.50;71.40;;;;;;5151143;27;20051;-70
2024/01/17 00:16:50;;;;;;;9.00;3.80;;;0.40;71.40;;;;;;5132180;27;20058;-70
2024/01/17 00:19:17;;;;;;;10.40;3.63;;;0.40;71.30;;;;;;5114025;27;20261;-71
2024/01/17 00:21:44;;;;;;;11.98;4.43;;;0.40;71.40;;;;;;5132128;27;20617;-70
2024/01/17 00:24:11;;;;;;;8.48;3.33;;;0.40;71.50;;;;;;5132313;27;20047;-70
2024/01/17 00:26:38;;;;;;;11.02;4.57;;;0.40;71.50;;;;;;5113950;27;20191;-70
2024/01/17 00:29:05;;;;;;;10.10;4.33;;;0.40;71.50;;;;;;5114094;27;20047;-70
2024/01/17 00:31:33;;;;;;;10.93;3.72;;;0.40;71.50;;;;;;5131415;27;20228;-71
2024/01/17 00:34:01;;;;;;;12.35;5.22;;;0.40;71.60;;;;;;5114275;27;20485;-70
2024/01/17 00:36:28;;;;;;;10.82;5.00;;;0.40;71.80;;;;;;5131351;27;20124;-70
2024/01/17 00:38:55;;;;;;;8.45;3.67;;;0.40;71.70;;;;;;5113806;27;20047;-70
2024/01/17 00:41:22;;;;;;;10.83;4.47;;;0.40;71.70;;;;;;5131773;27;20377;-70
2024/01/17 00:43:49;;;;;;;14.60;5.68;;;0.30;72.10;;;;;;5131135;27;20341;-70
2024/01/17 00:46:16;;;;;;;12.35;4.90;;;0.30;72.50;;;;;;5131094;27;20655;-70
2024/01/17 00:48:44;;;;;;;11.98;5.32;;;0.30;72.60;;;;;;5130696;27;20059;-70
2024/01/17 00:51:21;;;;;;;11.50;5.32;;;0.30;72.70;;;;;;5113761;27;20047;-70
2024/01/17 00:53:48;;;;;;;12.37;5.23;;;0.30;72.90;;;;;;5113003;27;20051;-70
2024/01/17 00:56:15;;;;;;;14.32;5.47;;;0.30;73.10;;;;;;5131589;27;20296;-70
2024/01/17 00:58:42;;;;;;;13.60;5.60;;;0.30;73.20;;;;;;5131769;27;20703;-70
2024/01/17 01:01:10;;;;;;;11.10;5.38;;;0.30;73.10;;;;;;5114717;27;20101;-70
2024/01/17 01:03:37;;;;;;;11.05;5.10;;;0.30;73.30;;;;;;5126581;27;20584;-70
2024/01/17 01:06:06;;;;;;;12.23;5.33;;;0.30;73.50;;;;;;5149852;27;20046;-70
2024/01/17 01:08:34;;;;;;;13.85;5.25;;;0.30;73.70;;;;;;5134390;27;20248;-70
2024/01/17 01:11:01;;;;;;;13.70;6.20;;;0.30;73.80;;;;;;5134815;27;20438;-70
2024/01/17 01:13:27;;;;;;;13.25;6.45;;;0.20;73.90;;;;;;5133810;27;20170;-70
2024/01/17 01:15:54;;;;;;;13.57;6.03;;;0.30;73.80;;;;;;5115641;27;20130;-70
2024/01/17 01:18:21;;;;;;;13.87;5.50;;;0.30;73.70;;;;;;5132394;27;20088;-70
2024/01/17 01:20:48;;;;;;;11.85;5.57;;;0.30;73.90;;;;;;5130769;27;20357;-70
2024/01/17 01:23:17;;;;;;;9.60;5.28;;;0.30;73.70;;;;;;5150282;27;20087;-70
2024/01/17 01:25:44;;;;;;;11.82;5.70;;;0.20;73.70;;;;;;5131803;27;20295;-70
2024/01/17 01:28:11;;;;;;;12.88;6.00;;;0.20;74.00;;;;;;5134001;27;20142;-71
2024/01/17 01:30:38;;;;;;;12.00;5.53;;;0.20;74.20;;;;;;5133923;27;20051;-70
2024/01/17 01:33:05;;;;;;;12.07;5.10;;;0.20;74.30;;;;;;5149370;27;20288;-70
2024/01/17 01:35:32;;;;;;;13.95;6.65;;;0.20;74.40;;;;;;5138545;27;20895;-70
2024/01/17 01:37:59;;;;;;;13.00;6.00;;;0.20;74.40;;;;;;5128772;27;20098;-70
2024/01/17 01:40:27;;;;;;;12.48;5.28;;;0.20;74.20;;;;;;5134545;27;20099;-70
2024/01/17 01:42:58;;;;;;;11.20;5.63;;;0.20;74.30;;;;;;5134949;27;20055;-70
2024/01/17 01:45:25;;;;;;;11.02;5.25;;;0.20;74.20;;;;;;5118145;27;21031;-70
2024/01/17 01:47:52;;;;;;;14.32;6.78;;;0.30;73.90;;;;;;5118231;27;20471;-70
2024/01/17 01:50:20;;;;;;;13.10;6.13;;;0.20;73.90;;;;;;5117922;27;20096;-70
2024/01/17 01:52:51;;;;;;;14.40;7.15;;;0.20;74.00;;;;;;5134956;27;20709;-70
2024/01/17 01:55:18;;;;;;;13.87;7.10;;;0.20;74.10;;;;;;5134989;27;20054;-70
2024/01/17 01:57:50;;;;;;;11.77;5.53;;;0.20;74.00;;;;;;5117314;27;20338;-70
2024/01/17 02:00:18;;;;;;;11.32;6.22;;;0.20;73.90;;;;;;5138337;27;20166;-70
2024/01/17 02:02:46;;;;;;;12.23;6.55;;;0.20;74.10;;;;;;5137009;27;20043;-70
2024/01/17 02:05:14;;;;;;;12.90;6.05;;;0.20;74.30;;;;;;5120045;27;20097;-70
2024/01/17 02:07:41;;;;;;;14.27;6.17;;;0.20;74.40;;;;;;5143323;27;20082;-70
2024/01/17 02:10:09;;;;;;;11.98;5.70;;;0.20;74.40;;;;;;5134934;27;20257;-70
2024/01/17 02:12:38;;;;;;;12.57;6.20;;;0.10;74.60;;;;;;5130498;27;20066;-70
2024/01/17 02:15:07;;;;;;;13.13;6.32;;;0.10;74.80;;;;;;5115422;27;20051;-70
2024/01/17 02:17:34;;;;;;;16.35;7.45;;;0.10;74.60;;;;;;5132261;27;20058;-70
2024/01/17 02:20:01;;;;;;;15.30;8.50;;;0.10;74.70;;;;;;5132071;27;20524;-70
2024/01/17 02:22:28;;;;;;;14.32;7.18;;;0.00;74.80;;;;;;5131698;27;20273;-70
2024/01/17 02:24:57;;;;;;;13.90;7.53;;;0.00;74.90;;;;;;5135122;27;20112;-70
2024/01/17 02:27:24;;;;;;;13.98;7.38;;;0.00;75.00;;;;;;5153843;27;20115;-70
2024/01/17 02:29:50;;;;;;;14.27;7.00;;;0.00;75.10;;;;;;5116894;27;20051;-70
2024/01/17 02:32:18;;;;;;;16.07;8.17;;;0.00;75.30;;;;;;5134272;27;20635;-70
2024/01/17 02:34:45;;;;;;;12.80;6.10;;;0.00;75.40;;;;;;5117435;27;20289;-70
2024/01/17 02:37:15;;;;;;;15.63;7.65;;;0.00;75.50;;;;;;5134429;27;20149;-70
2024/01/17 02:39:42;;;;;;;15.80;7.97;;;0.00;75.50;;;;;;5120816;27;20054;-70
2024/01/17 02:42:10;;;;;;;18.83;8.60;;;0.00;75.70;;;;;;5117010;27;20073;-70
2024/01/17 02:44:37;;;;;;;14.47;7.93;;;0.00;75.80;;;;;;5134548;27;20123;-70
2024/01/17 02:47:04;;;;;;;15.13;7.70;;;0.00;75.70;;;;;;5117701;27;20281;-70
2024/01/17 02:49:31;;;;;;;16.17;7.80;;;0.00;75.60;;;;;;5153274;27;20051;-70
2024/01/17 02:51:58;;;;;;;16.70;7.88;;;0.00;75.70;;;;;;5153199;27;20051;-70
2024/01/17 02:54:25;;;;;;;14.13;8.20;;;0.00;75.80;;;;;;5151865;27;20112;-70
2024/01/17 02:56:52;;;;;;;14.17;6.80;;;0.00;75.90;;;;;;5125911;27;20114;-70
2024/01/17 02:59:20;;;;;;;14.75;7.38;;;0.00;75.90;;;;;;5155743;27;20248;-70
2024/01/17 03:01:48;;;;;;;15.73;7.80;;;0.00;75.90;;;;;;5137093;27;20502;-70
2024/01/17 03:04:15;;;;;;;13.15;7.00;;;0.00;75.90;;;;;;5117098;27;20290;-70
2024/01/17 03:06:42;;;;;;;15.65;8.50;;;0.00;75.80;;;;;;5153362;27;20047;-70
2024/01/17 03:09:10;;;;;;;18.97;8.50;;;0.00;75.70;;;;;;5116725;27;20052;-70
2024/01/17 03:11:37;;;;;;;16.92;7.93;;;0.00;75.60;;;;;;5133799;27;20990;-70
2024/01/17 03:14:04;;;;;;;17.40;8.45;;;0.00;75.80;;;;;;5140912;27;20115;-70
2024/01/17 03:16:32;;;;;;;18.30;8.80;;;0.00;76.00;;;;;;5139945;27;20206;-70
2024/01/17 03:18:59;;;;;;;15.63;7.70;;;0.00;76.00;;;;;;5135086;27;20051;-70
2024/01/17 03:21:26;;;;;;;18.13;9.27;;;-0.10;76.10;;;;;;5151883;27;20051;-70
2024/01/17 03:23:53;;;;;;;18.13;8.65;;;-0.10;76.00;;;;;;5116792;27;20287;-70
2024/01/17 03:26:20;;;;;;;12.45;5.60;;;-0.10;76.10;;;;;;5152183;27;20047;-70
2024/01/17 03:28:47;;;;;;;16.63;7.90;;;-0.10;76.10;;;;;;5151966;27;20143;-70
2024/01/17 03:31:14;;;;;;;18.05;8.23;;;-0.10;76.20;;;;;;5115242;27;20059;-70
2024/01/17 03:33:43;;;;;;;14.63;7.70;;;-0.10;76.20;;;;;;5133708;27;20130;-70
2024/01/17 03:36:10;;;;;;;15.75;8.70;;;-0.10;76.40;;;;;;5133032;27;20253;-70
2024/01/17 03:38:37;;;;;;;16.63;8.05;;;-0.10;76.60;;;;;;5134268;27;20043;-70
2024/01/17 03:41:07;;;;;;;13.80;6.95;;;-0.10;76.50;;;;;;5133008;27;20062;-70
2024/01/17 03:43:34;;;;;;;19.08;7.55;;;-0.10;76.60;;;;;;5133583;27;20043;-70
2024/01/17 03:46:01;;;;;;;15.10;8.40;;;-0.10;76.70;;;;;;5133108;27;20051;-71
2024/01/17 03:48:28;;;;;;;18.35;8.82;;;-0.10;76.80;;;;;;5126490;27;20326;-70
2024/01/17 03:50:56;;;;;;;18.00;9.80;;;-0.10;76.90;;;;;;5144013;27;20119;-70
2024/01/17 03:53:23;;;;;;;15.23;7.28;;;-0.10;76.90;;;;;;5115810;27;20096;-70
2024/01/17 03:55:50;;;;;;;16.45;8.90;;;-0.10;76.80;;;;;;5115514;27;20050;-70
2024/01/17 03:58:17;;;;;;;16.40;8.17;;;-0.10;76.90;;;;;;5114812;27;20516;-70
2024/01/17 04:00:45;;;;;;;17.77;8.43;;;-0.10;77.00;;;;;;5131866;27;20277;-70
2024/01/17 04:03:12;;;;;;;13.48;7.53;;;-0.10;77.00;;;;;;5131642;27;20051;-70
2024/01/17 04:05:40;;;;;;;17.10;8.80;;;-0.10;77.00;;;;;;5140863;27;20047;-70
2024/01/17 04:08:08;;;;;;;14.98;8.48;;;-0.10;76.90;;;;;;5116257;27;20054;-70
2024/01/17 04:10:35;;;;;;;14.90;7.43;;;-0.20;76.90;;;;;;5134265;27;20047;-69
2024/01/17 04:13:02;;;;;;;14.98;8.30;;;-0.20;76.90;;;;;;5133649;27;20813;-71
2024/01/17 04:15:32;;;;;;;16.80;8.82;;;-0.20;76.90;;;;;;5128840;27;20564;-68
2024/01/17 04:18:03;;;;;;;14.95;6.72;;;-0.20;76.90;;;;;;5134612;27;20130;-69
2024/01/17 04:20:34;;;;;;;18.52;8.60;;;-0.30;77.10;;;;;;5134068;27;20042;-70
2024/01/17 04:23:05;;;;;;;14.40;7.17;;;-0.30;77.20;;;;;;5134074;27;20058;-71
2024/01/17 04:25:39;;;;;;;16.00;7.38;;;-0.30;77.20;;;;;;5132169;27;20269;-69
2024/01/17 04:28:09;;;;;;;15.93;7.70;;;-0.30;77.30;;;;;;5131567;27;20047;-72
2024/01/17 04:30:39;;;;;;;15.93;8.60;;;-0.30;77.10;;;;;;5131095;27;20085;-71
2024/01/17 04:33:11;;;;;;;17.80;9.15;;;-0.40;77.20;;;;;;5121098;27;20074;-70
2024/01/17 04:35:41;;;;;;;12.00;6.73;;;-0.40;77.60;;;;;;5167921;27;20051;-69
2024/01/17 04:38:11;;;;;;;16.67;8.20;;;-0.40;77.60;;;;;;5131304;27;20270;-72
2024/01/17 04:40:42;;;;;;;14.40;7.80;;;-0.40;77.70;;;;;;5114365;27;20077;-69
2024/01/17 04:43:12;;;;;;;15.60;8.55;;;-0.40;77.80;;;;;;5124966;27;20059;-72
2024/01/17 04:45:42;;;;;;;13.20;7.55;;;-0.50;77.90;;;;;;5149829;27;20137;-72
2024/01/17 04:48:13;;;;;;;18.63;8.70;;;-0.50;78.10;;;;;;5132515;27;20052;-70
2024/01/17 04:50:43;;;;;;;14.32;7.13;;;-0.50;78.10;;;;;;5113990;27;20313;-69
2024/01/17 04:53:15;;;;;;;17.92;9.93;;;-0.40;78.00;;;;;;5130639;27;20130;-70
2024/01/17 04:55:47;;;;;;;14.55;7.90;;;-0.50;78.20;;;;;;5132726;27;20166;-69
2024/01/17 04:58:20;;;;;;;17.00;9.13;;;-0.40;78.10;;;;;;5115071;27;20481;-69
2024/01/17 05:00:49;;;;;;;14.37;8.93;;;-0.50;78.30;;;;;;5139638;27;20123;-69
2024/01/17 05:03:20;;;;;;;18.00;6.70;;;-0.40;78.10;;;;;;5146082;27;20252;-71
2024/01/17 05:05:50;;;;;;;13.55;7.07;;;-0.40;78.10;;;;;;5135121;27;20152;-71
2024/01/17 05:08:19;;;;;;;13.23;6.93;;;-0.50;78.20;;;;;;5113819;27;20147;-69
2024/01/17 05:10:50;;;;;;;15.00;9.13;;;-0.50;78.20;;;;;;5123180;27;20841;-71
2024/01/17 05:13:20;;;;;;;15.97;9.70;;;-0.50;78.40;;;;;;5148185;27;20047;-71
2024/01/17 05:15:52;;;;;;;15.20;8.07;;;-0.50;78.40;;;;;;5113911;27;20296;-71
2024/01/17 05:18:21;;;;;;;14.85;4.85;;;-0.40;78.50;;;;;;5112070;27;20051;-69
2024/01/17 05:20:50;;;;;;;15.93;7.50;;;-0.40;78.50;;;;;;5130732;27;20141;-72
2024/01/17 05:23:20;;;;;;;15.70;8.70;;;-0.50;78.50;;;;;;5130612;27;20363;-68
2024/01/17 05:25:52;;;;;;;16.50;7.90;;;-0.50;78.70;;;;;;5130536;27;20085;-70
2024/01/17 05:28:21;;;;;;;16.75;10.13;;;-0.40;78.70;;;;;;5130222;27;20832;-69
2024/01/17 05:30:50;;;;;;;15.82;7.55;;;-0.40;78.80;;;;;;5119023;27;20050;-69
2024/01/17 05:33:20;;;;;;;14.98;7.32;;;-0.40;78.50;;;;;;5131183;27;20055;-69
2024/01/17 05:35:51;;;;;;;14.73;8.02;;;-0.40;78.30;;;;;;5130961;27;20100;-69
2024/01/17 05:38:22;;;;;;;13.10;6.67;;;-0.40;78.10;;;;;;5148050;27;20055;-69
2024/01/17 05:40:56;;;;;;;12.70;6.88;;;-0.40;78.10;;;;;;5113629;27;20280;-69
2024/01/17 05:43:25;;;;;;;15.00;8.18;;;-0.40;78.10;;;;;;5113256;27;20096;-69
2024/01/17 05:45:57;;;;;;;13.52;7.10;;;-0.40;78.00;;;;;;5154086;27;20351;-70
2024/01/17 05:48:27;;;;;;;12.77;5.80;;;-0.40;77.80;;;;;;5113706;27;20043;-72
2024/01/17 05:50:58;;;;;;;15.37;6.87;;;-0.40;77.80;;;;;;5113386;27;20047;-71
2024/01/17 05:53:28;;;;;;;10.27;4.97;;;-0.40;77.90;;;;;;5130286;27;20260;-71
2024/01/17 05:55:59;;;;;;;14.27;8.30;;;-0.40;77.90;;;;;;5133048;27;20349;-71
2024/01/17 05:58:28;;;;;;;13.82;6.45;;;-0.40;77.70;;;;;;5134644;27;20106;-70
2024/01/17 06:00:57;;;;;;;12.75;6.35;;;-0.40;77.50;;;;;;5132299;27;20111;-71
2024/01/17 06:03:26;;;;;;;14.60;7.80;;;-0.40;77.60;;;;;;5130840;27;20061;-69
2024/01/17 06:05:56;;;;;;;16.40;7.40;;;-0.40;77.70;;;;;;5142770;27;20275;-70
2024/01/17 06:08:25;;;;;;;13.30;6.45;;;-0.40;77.70;;;;;;5150914;27;20558;-69
2024/01/17 06:11:01;;;;;;;11.45;6.22;;;-0.40;77.70;;;;;;5143130;27;20062;-68
2024/01/17 06:13:30;;;;;;;12.45;6.93;;;-0.40;77.50;;;;;;5113817;27;20063;-69
2024/01/17 06:16:00;;;;;;;10.60;4.27;;;-0.40;77.50;;;;;;5133975;27;20055;-72
2024/01/17 06:18:29;;;;;;;13.98;6.18;;;-0.40;77.40;;;;;;5133777;27;20750;-70
2024/01/17 06:20:58;;;;;;;15.40;7.28;;;-0.40;77.50;;;;;;5129368;27;20556;-69
2024/01/17 06:23:29;;;;;;;16.42;7.45;;;-0.50;77.60;;;;;;5137499;27;20051;-71
2024/01/17 06:26:01;;;;;;;13.75;6.75;;;-0.50;77.70;;;;;;5137308;27;20084;-71
2024/01/17 06:28:33;;;;;;;17.10;7.60;;;-0.40;77.60;;;;;;5134656;27;20058;-68
2024/01/17 06:31:04;;;;;;;13.25;6.45;;;-0.50;77.50;;;;;;5129371;27;20259;-71
2024/01/17 06:33:33;;;;;;;12.68;6.88;;;-0.50;77.50;;;;;;5137308;27;20062;-68
2024/01/17 06:36:02;;;;;;;12.10;6.20;;;-0.50;77.60;;;;;;5154699;27;20497;-68
2024/01/17 06:38:32;;;;;;;15.88;7.45;;;-0.50;77.60;;;;;;5132936;27;20057;-68
2024/01/17 06:41:03;;;;;;;14.33;7.53;;;-0.50;77.50;;;;;;5132578;27;20111;-69
2024/01/17 06:43:33;;;;;;;15.32;7.20;;;-0.50;77.40;;;;;;5133164;27;20288;-71
2024/01/17 06:46:02;;;;;;;13.23;6.03;;;-0.50;77.20;;;;;;5115664;27;20132;-70
2024/01/17 06:48:31;;;;;;;13.85;6.90;;;-0.50;77.20;;;;;;5115506;27;20565;-71
2024/01/17 06:51:01;;;;;;;15.60;7.10;;;-0.60;77.20;;;;;;5126607;27;20054;-69
2024/01/17 06:53:30;;;;;;;14.43;6.80;;;-0.60;77.20;;;;;;5154437;27;20051;-69
2024/01/17 06:56:02;;;;;;;16.58;6.78;;;-0.60;77.20;;;;;;5125690;27;20276;-71
2024/01/17 06:58:32;;;;;;;11.65;5.68;;;-0.70;77.20;;;;;;5115412;27;20093;-69
2024/01/17 07:01:02;;;;;;;10.77;5.53;;;-0.70;77.30;;;;;;5132610;27;20051;-69
2024/01/17 07:03:32;;;;;;;14.13;7.15;;;-0.70;77.50;;;;;;5127255;27;20058;-69
2024/01/17 07:06:01;;;;;;;15.27;7.17;;;-0.70;77.30;;;;;;5125812;27;20548;-70
2024/01/17 07:08:30;;;;;;;11.95;5.75;;;-0.70;77.30;;;;;;5153803;27;21124;-69
2024/01/17 07:11:02;;;;;;;12.13;5.88;;;-0.80;77.40;;;;;;5144666;27;20122;-70
2024/01/17 07:13:32;;;;;;;11.50;6.50;;;-0.80;77.50;;;;;;5136201;27;20174;-70
2024/01/17 07:16:04;;;;;;;12.65;6.68;;;-0.80;77.60;;;;;;5148067;27;20043;-72
2024/01/17 07:18:37;;;;;;;12.00;6.47;;;-0.90;77.70;;;;;;5153173;27;20046;-71
2024/01/17 07:21:10;;;;;;;12.38;6.20;;;-0.90;77.60;;;;;;5149543;27;20281;-71
2024/01/17 07:23:40;;;;;;;17.52;7.25;;;-0.90;77.70;;;;;;5153732;27;20061;-69
2024/01/17 07:26:11;;;;;;;14.40;6.72;;;-0.90;77.70;;;;;;5133316;27;20057;-71
2024/01/17 07:28:42;;;;;;;13.35;6.68;;;-0.90;77.80;;;;;;5153415;27;20161;-69
2024/01/17 07:31:12;;;;;;;13.93;6.73;;;-1.00;77.70;;;;;;5147854;27;20525;-68
2024/01/17 07:33:42;;;;;;;13.63;6.53;;;-1.00;77.80;;;;;;5135420;27;20225;-69
2024/01/17 07:36:14;;;;;;;14.00;6.72;;;-1.00;77.70;;;;;;5169351;27;20055;-71
2024/01/17 07:38:43;;;;;;;15.70;6.85;;;-1.00;77.70;;;;;;5135344;27;20047;-70
2024/01/17 07:41:16;;;;;;;11.90;6.20;;;-1.00;77.70;;;;;;5147036;27;20167;-69
2024/01/17 07:43:46;;;;;;;14.63;6.83;;;-1.00;77.60;;;;;;5116771;27;20853;-69
2024/01/17 07:46:16;;;;;;;13.32;6.40;;;-1.00;77.60;;;;;;5151533;27;20253;-71
2024/01/17 07:48:46;;;;;;;14.80;7.30;;;-1.10;77.70;;;;;;5152144;27;20223;-71
2024/01/17 07:51:16;;;;;;;12.63;6.43;;;-1.10;77.80;;;;;;5133699;27;20143;-70
2024/01/17 07:53:46;;;;;;;12.85;6.70;;;-1.10;77.80;;;;;;5130252;27;20059;-71
2024/01/17 07:56:18;;;;;;;12.77;6.53;;;-1.10;77.80;;;;;;5143932;27;20051;-69
2024/01/17 07:58:47;;;;;;;13.82;6.07;;;-1.10;77.90;;;;;;5116235;27;20241;-72
2024/01/17 08:01:15;;;;;;;12.70;6.30;;;-1.10;77.90;;;;;;5118793;27;20057;-70
2024/01/17 08:03:43;;;;;;;13.75;6.55;;;-1.10;77.90;;;;;;5128291;27;20054;-70
2024/01/17 08:06:12;;;;;;;13.88;6.47;;;-1.10;77.90;;;;;;5146587;27;20051;-71
2024/01/17 08:08:42;;;;;;;12.17;6.37;;;-1.10;77.80;;;;;;5111141;27;20059;-71
2024/01/17 08:11:10;;;;;;;12.82;5.80;;;-1.10;77.80;;;;;;5134997;27;20280;-72
2024/01/17 08:13:40;;;;;;;12.43;5.78;;;-1.20;77.90;;;;;;5125827;27;20050;-68
2024/01/17 08:16:10;;;;;;;11.82;5.93;;;-1.20;77.90;;;;;;5171220;27;20055;-72
2024/01/17 08:18:41;;;;;;;13.93;6.80;;;-1.20;77.90;;;;;;5133706;27;20566;-70
2024/01/17 08:21:11;;;;;;;15.13;6.60;;;-1.20;78.00;;;;;;5127648;27;20051;-68
2024/01/17 08:23:41;;;;;;;14.13;6.30;;;-1.20;77.90;;;;;;5136792;27;20306;-72
2024/01/17 08:26:10;;;;;;;14.07;6.35;;;-1.20;78.00;;;;;;5140938;27;20546;-70
2024/01/17 08:28:38;;;;;;;13.05;6.25;;;-1.30;77.90;;;;;;5129111;27;20105;-68
2024/01/17 08:31:05;;;;;;;15.60;6.50;;;-1.30;77.90;;;;;;5112993;27;20141;-69
2024/01/17 08:33:32;;;;;;;12.17;6.27;;;-1.30;77.80;;;;;;5155262;27;20123;-70
2024/01/17 08:36:00;;;;;;;13.52;7.30;;;-1.30;77.70;;;;;;5133707;27;20357;-70
2024/01/17 08:38:27;;;;;;;13.65;6.65;;;-1.30;77.80;;;;;;5121900;27;20039;-70
2024/01/17 08:40:55;;;;;;;13.45;6.03;;;-1.30;77.90;;;;;;5120441;27;20642;-72
2024/01/17 08:43:22;;;;;;;13.43;6.53;;;-1.30;77.80;;;;;;5144908;27;20076;-72
2024/01/17 08:45:51;;;;;;;12.80;6.10;;;-1.30;77.60;;;;;;5161465;27;20469;-70
2024/01/17 08:48:18;;;;;;;13.65;6.43;;;-1.30;77.60;;;;;;5141644;27;21002;-71
2024/01/17 08:50:44;;;;;;;14.75;6.25;;;-1.30;77.70;;;;;;5126787;27;20969;-72
2024/01/17 08:53:11;;;;;;;9.95;4.78;;;-1.30;77.60;;;;;;5124437;27;20042;-72
2024/01/17 08:55:39;;;;;;;10.85;5.50;;;-1.30;77.50;;;;;;5162845;27;20414;-70
2024/01/17 08:58:06;;;;;;;15.90;6.60;;;-1.30;77.50;;;;;;5141148;27;20357;-70
2024/01/17 09:00:33;;;;;;;13.68;5.72;;;-1.30;77.60;;;;;;5147337;27;20328;-72
2024/01/17 09:03:01;;;;;;;13.27;6.50;;;-1.30;77.80;;;;;;5127347;27;20582;-71
2024/01/17 09:05:28;;;;;;;10.95;5.22;;;-1.30;77.80;;;;;;5143614;27;20055;-71
2024/01/17 09:07:56;;;;;;;11.95;5.63;;;-1.30;77.90;;;;;;5144735;27;20070;-71
2024/01/17 09:10:24;;;;;;;12.50;6.20;;;-1.30;77.90;;;;;;5129118;27;20142;-71
2024/01/17 09:12:51;;;;;;;10.13;4.32;;;-1.30;78.00;;;;;;5147399;27;20276;-69
2024/01/17 09:15:18;;;;;;;11.77;6.00;;;-1.30;78.10;;;;;;5128155;27;20046;-69
2024/01/17 09:17:45;;;;;;;12.95;6.30;;;-1.30;78.20;;;;;;5126510;27;20120;-71
2024/01/17 09:20:14;;;;;;;14.02;5.80;;;-1.30;78.30;;;;;;5143803;27;20143;-71
2024/01/17 09:22:41;;;;;;;11.00;5.93;;;-1.30;78.30;;;;;;5141113;27;20187;-73
2024/01/17 09:25:09;;;;;;;12.40;6.43;;;-1.30;78.30;;;;;;5125287;27;20831;-70
2024/01/17 09:27:36;;;;;;;14.45;7.00;;;-1.20;78.30;;;;;;5141761;27;20158;-73
2024/01/17 09:30:04;;;;;;;10.95;5.65;;;-1.20;78.20;;;;;;5140646;27;20603;-72
2024/01/17 09:32:30;;;;;;;12.35;6.57;;;-1.10;78.00;;;;;;5124018;27;20845;-70
2024/01/17 09:34:57;;;;;;;12.23;6.07;;;-1.10;77.90;;;;;;5130151;27;20525;-71
2024/01/17 09:37:26;;;;;;;13.70;6.95;;;-1.10;77.80;;;;;;5143729;27;20253;-72
2024/01/17 09:39:53;;;;;;;14.63;6.38;;;-1.10;77.70;;;;;;5159876;27;20574;-70
2024/01/17 09:42:21;;;;;;;15.00;6.50;;;-1.10;77.70;;;;;;5139226;27;20322;-70
2024/01/17 09:44:49;;;;;;;12.13;6.35;;;-1.10;77.70;;;;;;5152607;27;20471;-71
2024/01/17 09:47:19;;;;;;;14.97;6.03;;;-1.10;77.80;;;;;;5160648;27;20584;-70
2024/01/17 09:49:46;;;;;;;11.88;6.00;;;-1.10;77.90;;;;;;5130005;27;20284;-71
2024/01/17 09:52:17;;;;;;;13.38;7.20;;;-1.10;78.00;;;;;;5118961;27;20179;-72
2024/01/17 09:54:47;;;;;;;14.23;6.35;;;-1.10;77.90;;;;;;5126808;27;20063;-72
2024/01/17 09:57:24;;;;;;;16.13;6.30;;;-1.00;77.90;;;;;;5111616;27;20145;-71
2024/01/17 09:59:57;;;;;;;13.53;5.53;;;-1.00;77.80;;;;;;5126932;27;20051;-71
2024/01/17 10:02:27;;;;;;;12.05;6.18;;;-1.00;77.80;;;;;;5155785;27;20264;-69
2024/01/17 10:04:56;;;;;;;11.70;4.93;;;-1.00;77.90;;;;;;5146506;27;20055;-71
2024/01/17 10:07:23;;;;;;;11.52;5.70;;;-1.00;77.90;;;;;;5149105;27;20131;-71
2024/01/17 10:09:51;;;;;;;12.77;6.32;;;-0.90;78.00;;;;;;5148432;27;20118;-69
2024/01/17 10:12:19;;;;;;;12.23;5.80;;;-0.90;77.90;;;;;;5128956;27;20219;-70
2024/01/17 10:14:47;;;;;;;10.88;5.13;;;-0.90;77.80;;;;;;5142155;27;20771;-70
2024/01/17 10:17:14;;;;;;;11.80;5.60;;;-0.90;77.60;;;;;;5123014;27;20147;-71
2024/01/17 10:19:41;;;;;;;13.85;5.88;;;-0.80;77.40;;;;;;5129370;27;20059;-70
2024/01/17 10:22:10;;;;;;;12.00;5.28;;;-0.80;77.40;;;;;;5112741;27;20058;-70
2024/01/17 10:24:38;;;;;;;13.30;6.03;;;-0.80;77.50;;;;;;5130926;27;20870;-69
2024/01/17 10:27:07;;;;;;;11.88;5.38;;;-0.70;77.50;;;;;;5124382;27;20257;-71
2024/01/17 10:29:38;;;;;;;13.65;6.43;;;-0.70;77.40;;;;;;5131902;27;20081;-71
2024/01/17 10:32:06;;;;;;;12.25;6.07;;;-0.70;77.20;;;;;;5161984;27;20452;-71
2024/01/17 10:34:33;;;;;;;10.82;5.70;;;-0.70;77.10;;;;;;5133681;27;20137;-71
2024/01/17 10:37:04;;;;;;;12.33;4.90;;;-0.70;77.10;;;;;;5132312;27;20043;-71
2024/01/17 10:39:31;;;;;;;10.45;5.50;;;-0.70;77.00;;;;;;5134731;27;20405;-69
2024/01/17 10:41:59;;;;;;;12.27;5.28;;;-0.60;77.00;;;;;;5129940;27;20043;-70
2024/01/17 10:44:28;;;;;;;12.30;5.88;;;-0.60;76.90;;;;;;5141998;27;20081;-69
2024/01/17 10:46:55;;;;;;;10.38;4.82;;;-0.60;76.90;;;;;;5134599;27;20058;-71
2024/01/17 10:49:23;;;;;;;12.93;6.50;;;-0.60;76.80;;;;;;5132759;27;20119;-71
2024/01/17 10:51:58;;;;;;;11.52;5.68;;;-0.50;76.50;;;;;;5146191;27;20368;-69
2024/01/17 10:54:27;;;;;;;10.48;4.97;;;-0.50;76.20;;;;;;5148809;27;20105;-71
2024/01/17 10:56:55;;;;;;;12.57;5.50;;;-0.50;75.80;;;;;;5120929;27;20049;-70
2024/01/17 10:59:23;;;;;;;12.73;5.47;;;-0.50;75.80;;;;;;5113320;27;20066;-70
2024/01/17 11:01:53;;;;;;;11.97;6.10;;;-0.50;76.00;;;;;;5143952;27;20239;-69
2024/01/17 11:04:24;;;;;;;11.80;5.80;;;-0.50;76.20;;;;;;5134402;27;20493;-70
2024/01/17 11:06:52;;;;;;;11.10;6.13;;;-0.40;76.10;;;;;;5134414;27;20043;-70
2024/01/17 11:09:22;;;;;;;12.15;5.30;;;-0.40;76.10;;;;;;5133331;27;20082;-70
2024/01/17 11:11:50;;;;;;;10.60;4.60;;;-0.40;76.00;;;;;;5165730;27;20043;-70
2024/01/17 11:14:19;;;;;;;12.03;5.70;;;-0.40;76.10;;;;;;5150119;27;20047;-69
2024/01/17 11:16:48;;;;;;;11.15;5.38;;;-0.40;76.10;;;;;;5123514;27;20429;-70
2024/01/17 11:19:18;;;;;;;10.43;5.20;;;-0.40;75.90;;;;;;5118864;27;20595;-70
2024/01/17 11:21:45;;;;;;;11.30;5.40;;;-0.40;75.80;;;;;;5123428;27;20138;-71
2024/01/17 11:24:25;;;;;;;14.10;5.50;;;-0.30;75.70;;;;;;5111460;27;20059;-69
2024/01/17 11:27:01;;;;;;;12.57;4.90;;;-0.30;75.80;;;;;;5128462;27;21045;-72
2024/01/17 11:29:36;;;;;;;11.43;5.85;;;-0.30;76.00;;;;;;5144682;27;20272;-70
2024/01/17 11:32:14;;;;;;;12.75;5.20;;;-0.30;76.00;;;;;;5131797;27;20050;-71
2024/01/17 11:34:42;;;;;;;12.88;5.28;;;-0.30;76.10;;;;;;5149043;27;20051;-69
2024/01/17 11:37:09;;;;;;;11.90;5.60;;;-0.30;76.20;;;;;;5147289;27;20798;-71
2024/01/17 11:39:36;;;;;;;12.03;5.63;;;-0.20;76.20;;;;;;5128176;27;20524;-70
2024/01/17 11:42:04;;;;;;;12.77;5.65;;;-0.20;76.20;;;;;;5111614;27;20893;-70
2024/01/17 11:44:31;;;;;;;12.32;5.50;;;-0.20;76.20;;;;;;5128442;27;20047;-70
2024/01/17 11:47:02;;;;;;;10.35;4.95;;;-0.20;76.10;;;;;;5128317;27;20156;-71
2024/01/17 11:49:40;;;;;;;11.93;4.68;;;-0.20;76.10;;;;;;5137433;27;20075;-69
2024/01/17 11:52:27;;;;;;;11.53;5.20;;;-0.10;76.20;;;;;;5139675;27;20055;-70
2024/01/17 11:54:54;;;;;;;11.05;5.63;;;-0.10;76.20;;;;;;5111395;27;20734;-72
2024/01/17 11:57:21;;;;;;;10.63;5.53;;;-0.10;76.30;;;;;;5137091;27;20067;-70
2024/01/17 12:00:06;;;;;;;11.90;5.40;;;-0.10;76.10;;;;;;5129365;27;20605;-71
2024/01/17 12:02:37;;;;;;;11.57;5.80;;;-0.10;76.00;;;;;;5127480;27;20148;-70
2024/01/17 12:05:05;;;;;;;8.80;4.67;;;-0.10;75.90;;;;;;5145772;27;20051;-70
2024/01/17 12:07:38;;;;;;;10.50;5.43;;;-0.10;75.90;;;;;;5110930;27;20269;-70
2024/01/17 12:10:09;;;;;;;11.05;4.97;;;0.00;75.90;;;;;;5111241;27;20655;-70
2024/01/17 12:12:37;;;;;;;12.00;4.65;;;0.00;75.90;;;;;;5117335;27;20051;-72
2024/01/17 12:15:06;;;;;;;10.90;4.65;;;0.00;75.70;;;;;;5111300;27;20075;-69
2024/01/17 12:17:34;;;;;;;14.03;5.80;;;0.00;75.50;;;;;;5110562;27;20426;-71
2024/01/17 12:20:01;;;;;;;11.85;5.32;;;0.00;75.40;;;;;;5134331;27;20299;-69
2024/01/17 12:22:28;;;;;;;9.13;4.85;;;0.00;75.40;;;;;;5137716;27;20156;-71
2024/01/17 12:24:57;;;;;;;14.43;5.35;;;0.00;75.40;;;;;;5128060;27;20059;-71
2024/01/17 12:27:24;;;;;;;11.52;5.05;;;0.00;75.50;;;;;;5127067;27;20100;-71
2024/01/17 12:29:54;;;;;;;10.83;4.97;;;0.00;75.10;;;;;;5109489;27;20055;-71
2024/01/17 12:32:22;;;;;;;9.00;5.13;;;0.00;75.20;;;;;;5145639;27;20249;-71
2024/01/17 12:34:49;;;;;;;10.52;4.50;;;0.00;75.10;;;;;;5146389;27;20506;-71
2024/01/17 12:37:16;;;;;;;10.90;4.95;;;0.00;75.20;;;;;;5133310;27;20394;-69
2024/01/17 12:39:43;;;;;;;11.27;5.25;;;0.00;75.30;;;;;;5143548;27;20100;-71
2024/01/17 12:42:12;;;;;;;11.93;5.20;;;0.00;75.30;;;;;;5107470;27;20132;-70
2024/01/17 12:44:39;;;;;;;13.18;5.00;;;0.00;75.40;;;;;;5126390;27;20728;-70
2024/01/17 12:47:06;;;;;;;9.95;4.72;;;0.00;75.50;;;;;;5114379;27;20351;-69
2024/01/17 12:49:34;;;;;;;10.50;5.38;;;0.10;75.50;;;;;;5129369;27;20058;-71